Time;durP1;ratioP1;P1;durP2;ratioP2;P2;SDS_P1;SDS_P2;PMS_P1;PMS_P2;Temp;Humidity;BMP_temperature;BMP_pressure;BME280_temperature;BME280_humidity;BME280_pressure;Samples;Min_cycle;Max_cycle;Signal;HPM_P1;HPM_P2
2023/06/07 00:01:52;;;;;;;3.80;2.43;;;;;;;;;;5029138;28;20202;-36
2023/06/07 00:04:22;;;;;;;2.67;2.40;;;;;;;;;;5033708;28;20201;-40
2023/06/07 00:06:56;;;;;;;2.20;2.00;;;;;;;;;;5032890;28;20222;-39
2023/06/07 00:09:23;;;;;;;2.40;2.20;;;;;;;;;;5031118;28;20198;-40
2023/06/07 00:11:52;;;;;;;3.37;2.00;;;;;;;;;;5023117;28;20215;-35
2023/06/07 00:14:19;;;;;;;2.63;2.43;;;;;;;;;;5030602;28;20201;-41
2023/06/07 00:16:47;;;;;;;2.93;2.60;;;;;;;;;;5025934;28;20228;-34
2023/06/07 00:19:15;;;;;;;2.67;2.30;;;;;;;;;;5019954;28;20226;-39
2023/06/07 00:21:42;;;;;;;2.50;2.30;;;;;;;;;;5028761;28;20292;-44
2023/06/07 00:24:09;;;;;;;2.60;2.40;;;;;;;;;;5031555;28;20216;-38
2023/06/07 00:26:36;;;;;;;2.33;2.13;;;;;;;;;;5021428;28;20289;-37
2023/06/07 00:29:04;;;;;;;2.20;2.10;;;;;;;;;;5027375;28;20205;-37
2023/06/07 00:31:31;;;;;;;2.33;2.20;;;;;;;;;;5026479;28;20224;-39
2023/06/07 00:33:58;;;;;;;2.30;2.10;;;;;;;;;;5029139;28;20606;-37
2023/06/07 00:36:26;;;;;;;2.93;2.50;;;;;;;;;;5024115;28;20727;-39
2023/06/07 00:38:53;;;;;;;2.53;2.03;;;;;;;;;;5011952;28;20212;-39
2023/06/07 00:41:21;;;;;;;2.57;2.37;;;;;;;;;;5016317;28;20205;-39
2023/06/07 00:43:48;;;;;;;2.70;2.10;;;;;;;;;;5030055;28;20274;-40
2023/06/07 00:48:50;;;;;;;2.27;2.10;;;;;;;;;;5066914;28;20673;-26
2023/06/07 00:51:17;;;;;;;2.50;2.30;;;;;;;;;;5076018;28;20207;-28
2023/06/07 00:53:46;;;;;;;6.30;2.70;;;;;;;;;;5090849;28;20200;-27
2023/06/07 00:56:15;;;;;;;3.20;2.60;;;;;;;;;;5076935;28;20231;-26
2023/06/07 00:58:42;;;;;;;2.60;2.30;;;;;;;;;;5056145;28;20212;-25
2023/06/07 01:01:10;;;;;;;2.57;2.37;;;;;;;;;;5062045;28;20214;-25
2023/06/07 01:03:38;;;;;;;2.93;2.40;;;;;;;;;;5062382;28;20207;-29
2023/06/07 01:06:06;;;;;;;2.50;2.07;;;;;;;;;;5054282;28;20219;-27
2023/06/07 01:08:35;;;;;;;2.63;2.30;;;;;;;;;;5070669;28;20217;-26
2023/06/07 01:11:03;;;;;;;2.53;2.33;;;;;;;;;;5066186;28;20204;-28
2023/06/07 01:13:31;;;;;;;2.50;2.30;;;;;;;;;;5057728;28;20208;-30
2023/06/07 01:15:58;;;;;;;2.33;2.10;;;;;;;;;;5060531;28;20219;-28
2023/06/07 01:18:25;;;;;;;2.67;2.17;;;;;;;;;;5065171;28;20223;-26
2023/06/07 01:20:55;;;;;;;2.90;2.53;;;;;;;;;;5059718;28;20297;-27
2023/06/07 01:23:28;;;;;;;2.57;2.37;;;;;;;;;;5069490;28;20241;-27
2023/06/07 01:25:57;;;;;;;2.23;2.10;;;;;;;;;;5066685;28;20235;-25
2023/06/07 01:28:25;;;;;;;3.23;2.10;;;;;;;;;;5049587;28;20203;-25
2023/06/07 01:30:53;;;;;;;2.43;2.23;;;;;;;;;;5068507;28;20468;-27
2023/06/07 01:33:21;;;;;;;2.53;2.30;;;;;;;;;;5051077;28;20212;-28
2023/06/07 01:35:49;;;;;;;2.40;2.20;;;;;;;;;;5056946;28;20220;-25
2023/06/07 01:38:17;;;;;;;2.23;2.03;;;;;;;;;;5049882;28;20203;-27
2023/06/07 01:40:46;;;;;;;2.43;2.23;;;;;;;;;;5049914;28;20214;-27
2023/06/07 01:43:13;;;;;;;2.63;2.43;;;;;;;;;;5059453;28;20222;-26
2023/06/07 01:45:40;;;;;;;2.63;2.43;;;;;;;;;;5048996;28;20232;-26
2023/06/07 01:48:08;;;;;;;2.73;2.53;;;;;;;;;;5072072;28;20214;-26
2023/06/07 01:50:35;;;;;;;2.57;2.37;;;;;;;;;;5085732;28;20444;-25
2023/06/07 01:53:02;;;;;;;2.30;2.10;;;;;;;;;;5090161;28;20667;-27
2023/06/07 01:55:29;;;;;;;3.40;2.50;;;;;;;;;;5090073;28;20230;-28
2023/06/07 01:58:02;;;;;;;2.30;2.00;;;;;;;;;;5074971;28;20211;-28
2023/06/07 02:00:33;;;;;;;2.60;2.40;;;;;;;;;;5084586;28;20530;-28
2023/06/07 02:03:02;;;;;;;2.50;2.30;;;;;;;;;;5081092;28;20203;-27
2023/06/07 02:05:33;;;;;;;2.87;2.47;;;;;;;;;;5092857;28;20227;-27
2023/06/07 02:08:02;;;;;;;3.60;2.37;;;;;;;;;;5093858;28;20223;-26
2023/06/07 02:10:29;;;;;;;2.60;2.40;;;;;;;;;;5089796;28;20237;-25
2023/06/07 02:12:57;;;;;;;2.43;2.23;;;;;;;;;;5072813;28;20649;-28
2023/06/07 02:15:26;;;;;;;2.97;2.73;;;;;;;;;;5072668;28;20201;-25
2023/06/07 02:17:57;;;;;;;3.30;2.27;;;;;;;;;;5079676;28;20212;-27
2023/06/07 02:20:24;;;;;;;2.37;2.17;;;;;;;;;;5090096;28;20304;-28
2023/06/07 02:22:51;;;;;;;3.17;2.23;;;;;;;;;;5093795;28;20198;-26
2023/06/07 02:25:18;;;;;;;2.37;2.17;;;;;;;;;;5087677;28;20234;-25
2023/06/07 02:27:46;;;;;;;2.70;2.50;;;;;;;;;;5073875;28;20233;-26
2023/06/07 02:30:13;;;;;;;2.63;2.23;;;;;;;;;;5075747;28;20216;-27
2023/06/07 02:32:45;;;;;;;2.50;2.30;;;;;;;;;;5077153;28;20220;-26
2023/06/07 02:35:12;;;;;;;3.70;2.60;;;;;;;;;;5088469;28;20259;-27
2023/06/07 02:37:39;;;;;;;2.70;2.50;;;;;;;;;;5096155;28;20194;-24
2023/06/07 02:40:08;;;;;;;5.00;2.37;;;;;;;;;;5095004;28;20201;-25
2023/06/07 02:42:36;;;;;;;4.80;2.77;;;;;;;;;;5080725;28;20502;-28
2023/06/07 02:45:03;;;;;;;3.47;2.67;;;;;;;;;;5081198;28;20207;-27
2023/06/07 02:47:31;;;;;;;3.23;2.30;;;;;;;;;;5075539;28;20529;-27
2023/06/07 02:50:00;;;;;;;2.23;2.13;;;;;;;;;;5075922;28;20226;-26
2023/06/07 02:52:27;;;;;;;2.20;2.03;;;;;;;;;;5093086;28;20212;-28
2023/06/07 02:54:55;;;;;;;2.80;2.43;;;;;;;;;;5091851;28;20201;-27
2023/06/07 02:57:22;;;;;;;4.20;2.33;;;;;;;;;;5084879;28;20233;-30
2023/06/07 02:59:49;;;;;;;2.30;2.10;;;;;;;;;;5076364;28;20203;-32
2023/06/07 03:02:16;;;;;;;2.40;2.27;;;;;;;;;;5073133;28;20221;-34
2023/06/07 03:04:43;;;;;;;4.13;2.70;;;;;;;;;;5088312;28;20204;-33
2023/06/07 03:07:12;;;;;;;2.67;2.47;;;;;;;;;;5085367;28;20227;-35
2023/06/07 03:09:39;;;;;;;2.67;2.47;;;;;;;;;;5092598;28;20214;-33
2023/06/07 03:12:07;;;;;;;2.87;2.43;;;;;;;;;;5086181;28;20208;-31
2023/06/07 03:14:34;;;;;;;2.30;2.10;;;;;;;;;;5084277;28;20209;-32
2023/06/07 03:17:02;;;;;;;3.97;2.60;;;;;;;;;;5083898;28;20223;-34
2023/06/07 03:19:30;;;;;;;2.67;2.47;;;;;;;;;;5085585;28;20213;-30
2023/06/07 03:21:57;;;;;;;3.03;2.73;;;;;;;;;;5073262;28;20218;-38
2023/06/07 03:24:28;;;;;;;3.43;3.00;;;;;;;;;;5071546;28;20217;-31
2023/06/07 03:26:57;;;;;;;2.60;2.40;;;;;;;;;;5085012;28;20291;-30
2023/06/07 03:29:24;;;;;;;3.30;3.00;;;;;;;;;;5093360;28;20209;-33
2023/06/07 03:31:51;;;;;;;2.90;2.60;;;;;;;;;;5081676;28;20220;-32
2023/06/07 03:34:19;;;;;;;4.47;2.50;;;;;;;;;;5087020;28;20584;-33
2023/06/07 03:36:58;;;;;;;2.80;2.60;;;;;;;;;;5075442;28;20271;-34
2023/06/07 03:39:27;;;;;;;2.90;2.67;;;;;;;;;;5077296;28;20193;-30
2023/06/07 03:41:55;;;;;;;3.30;2.70;;;;;;;;;;5080978;28;20334;-27
2023/06/07 03:44:22;;;;;;;3.93;2.63;;;;;;;;;;5084536;28;20206;-28
2023/06/07 03:46:50;;;;;;;2.43;2.27;;;;;;;;;;5089174;28;20227;-29
2023/06/07 03:49:17;;;;;;;5.57;2.60;;;;;;;;;;5085400;28;20204;-33
2023/06/07 03:51:44;;;;;;;3.13;2.83;;;;;;;;;;5074218;28;20660;-31
2023/06/07 03:54:12;;;;;;;3.07;2.67;;;;;;;;;;5070041;28;20606;-32
2023/06/07 03:56:40;;;;;;;2.80;2.60;;;;;;;;;;5072701;28;20214;-28
2023/06/07 03:59:07;;;;;;;3.77;2.60;;;;;;;;;;5080442;28;20797;-32
2023/06/07 04:01:35;;;;;;;2.90;2.70;;;;;;;;;;5073129;28;20221;-33
2023/06/07 04:04:02;;;;;;;2.40;2.20;;;;;;;;;;5081062;28;20290;-30
2023/06/07 04:06:29;;;;;;;2.70;2.50;;;;;;;;;;5086179;28;20217;-30
2023/06/07 04:08:59;;;;;;;3.93;2.63;;;;;;;;;;5073130;28;20208;-31
2023/06/07 04:11:28;;;;;;;3.27;2.40;;;;;;;;;;5086037;28;20214;-32
2023/06/07 04:13:56;;;;;;;2.57;2.37;;;;;;;;;;5091751;28;20624;-29
2023/06/07 04:16:23;;;;;;;4.80;3.33;;;;;;;;;;5090963;28;20221;-26
2023/06/07 04:18:50;;;;;;;3.17;2.90;;;;;;;;;;5074797;28;20217;-31
2023/06/07 04:21:17;;;;;;;3.13;2.83;;;;;;;;;;5085037;28;20223;-29
2023/06/07 04:23:45;;;;;;;3.20;2.90;;;;;;;;;;5092841;28;20262;-32
2023/06/07 04:26:15;;;;;;;2.80;2.60;;;;;;;;;;5082497;28;20222;-30
2023/06/07 04:28:42;;;;;;;3.20;2.90;;;;;;;;;;5088511;28;20227;-31
2023/06/07 04:31:12;;;;;;;2.80;2.60;;;;;;;;;;5085622;28;20197;-30
2023/06/07 04:33:40;;;;;;;2.43;2.30;;;;;;;;;;5084354;28;20206;-34
2023/06/07 04:36:08;;;;;;;3.63;2.60;;;;;;;;;;5079230;28;20216;-34
2023/06/07 04:38:35;;;;;;;3.23;3.03;;;;;;;;;;5080921;28;20231;-30
2023/06/07 04:41:06;;;;;;;2.90;2.70;;;;;;;;;;5072542;28;20643;-29
2023/06/07 04:43:35;;;;;;;3.67;3.00;;;;;;;;;;5078119;28;20288;-29
2023/06/07 04:46:02;;;;;;;3.63;2.90;;;;;;;;;;5080649;28;20279;-29
2023/06/07 04:48:31;;;;;;;3.53;3.23;;;;;;;;;;5084781;28;20206;-32
2023/06/07 04:51:03;;;;;;;4.07;2.87;;;;;;;;;;5092397;28;20200;-30
2023/06/07 04:53:34;;;;;;;2.97;2.77;;;;;;;;;;5092575;28;20182;-30
2023/06/07 04:56:02;;;;;;;3.30;3.00;;;;;;;;;;5086020;28;20630;-33
2023/06/07 04:58:29;;;;;;;3.30;2.53;;;;;;;;;;5075772;28;20198;-33
2023/06/07 05:00:57;;;;;;;3.13;2.90;;;;;;;;;;5083622;28;20201;-31
2023/06/07 05:03:24;;;;;;;2.97;2.77;;;;;;;;;;5078037;28;20197;-31
2023/06/07 05:05:53;;;;;;;3.80;3.20;;;;;;;;;;5073862;28;20253;-28
2023/06/07 05:08:21;;;;;;;2.80;2.60;;;;;;;;;;5092406;28;20216;-28
2023/06/07 05:10:48;;;;;;;3.20;2.90;;;;;;;;;;5088458;28;20204;-32
2023/06/07 05:13:15;;;;;;;2.90;2.67;;;;;;;;;;5080229;28;20205;-34
2023/06/07 05:15:44;;;;;;;2.97;2.77;;;;;;;;;;5088548;28;20231;-28
2023/06/07 05:18:12;;;;;;;5.60;2.87;;;;;;;;;;5080809;28;20202;-29
2023/06/07 05:20:39;;;;;;;3.27;2.97;;;;;;;;;;5077590;28;20236;-29
2023/06/07 05:23:08;;;;;;;3.30;3.00;;;;;;;;;;5081464;28;20200;-27
2023/06/07 05:25:35;;;;;;;3.77;3.23;;;;;;;;;;5086494;28;20277;-33
2023/06/07 05:28:03;;;;;;;3.40;3.10;;;;;;;;;;5080482;28;20225;-30
2023/06/07 05:30:30;;;;;;;3.50;3.20;;;;;;;;;;5079276;28;20201;-29
2023/06/07 05:32:57;;;;;;;4.93;3.73;;;;;;;;;;5080763;28;20209;-33
2023/06/07 05:35:24;;;;;;;4.57;3.70;;;;;;;;;;5082478;28;20203;-33
2023/06/07 05:37:51;;;;;;;3.20;2.83;;;;;;;;;;5087034;28;20194;-27
2023/06/07 05:40:20;;;;;;;3.57;3.33;;;;;;;;;;5090041;28;20555;-27
2023/06/07 05:42:50;;;;;;;5.40;3.50;;;;;;;;;;5093127;28;20262;-32
2023/06/07 05:45:17;;;;;;;3.57;3.37;;;;;;;;;;5090193;28;20639;-34
2023/06/07 05:47:44;;;;;;;3.73;3.43;;;;;;;;;;5084723;28;20261;-31
2023/06/07 05:50:12;;;;;;;4.47;3.70;;;;;;;;;;5095475;28;20206;-27
2023/06/07 05:52:40;;;;;;;3.87;3.57;;;;;;;;;;5089408;28;20243;-35
2023/06/07 05:55:08;;;;;;;3.10;2.90;;;;;;;;;;5081885;28;20253;-41
2023/06/07 05:57:37;;;;;;;3.30;3.00;;;;;;;;;;5088401;28;20215;-30
2023/06/07 06:00:07;;;;;;;4.60;3.47;;;;;;;;;;5083646;28;20203;-32
2023/06/07 06:02:37;;;;;;;4.10;3.70;;;;;;;;;;5078763;28;20686;-30
2023/06/07 06:05:04;;;;;;;3.53;3.23;;;;;;;;;;5081603;28;20199;-30
2023/06/07 06:07:31;;;;;;;5.10;3.77;;;;;;;;;;5091136;28;20282;-32
2023/06/07 06:09:58;;;;;;;3.60;3.40;;;;;;;;;;5093948;28;20203;-33
2023/06/07 06:12:25;;;;;;;4.07;3.63;;;;;;;;;;5086711;28;20661;-31
2023/06/07 06:14:54;;;;;;;4.27;3.80;;;;;;;;;;5086786;28;20196;-30
2023/06/07 06:17:21;;;;;;;3.33;3.03;;;;;;;;;;5077382;28;20240;-32
2023/06/07 06:19:49;;;;;;;3.93;3.60;;;;;;;;;;5088027;28;20201;-30
2023/06/07 06:22:16;;;;;;;3.50;3.23;;;;;;;;;;5092727;28;20200;-31
2023/06/07 06:24:43;;;;;;;3.83;3.50;;;;;;;;;;5085850;28;20210;-32
2023/06/07 06:27:10;;;;;;;4.00;3.50;;;;;;;;;;5092647;28;20225;-27
2023/06/07 06:29:37;;;;;;;4.40;3.70;;;;;;;;;;5080664;28;20631;-31
2023/06/07 06:32:07;;;;;;;3.60;3.30;;;;;;;;;;5077781;28;20202;-30
2023/06/07 06:34:34;;;;;;;4.30;3.90;;;;;;;;;;5086708;28;20207;-30
2023/06/07 06:37:04;;;;;;;4.50;4.10;;;;;;;;;;5075681;28;20205;-29
2023/06/07 06:39:31;;;;;;;4.47;4.07;;;;;;;;;;5072126;28;20197;-34
2023/06/07 06:41:58;;;;;;;4.00;3.70;;;;;;;;;;5086877;28;20201;-33
2023/06/07 06:44:25;;;;;;;3.60;3.30;;;;;;;;;;5085421;28;20541;-33
2023/06/07 06:46:52;;;;;;;4.23;3.40;;;;;;;;;;5074632;28;20231;-30
2023/06/07 06:49:21;;;;;;;4.57;3.57;;;;;;;;;;5079063;28;20219;-32
2023/06/07 06:51:54;;;;;;;3.90;3.60;;;;;;;;;;5081244;28;20445;-31
2023/06/07 06:54:22;;;;;;;4.13;3.33;;;;;;;;;;5080386;28;20217;-29
2023/06/07 06:56:50;;;;;;;3.50;3.20;;;;;;;;;;5079049;28;20224;-34
2023/06/07 06:59:17;;;;;;;4.17;3.47;;;;;;;;;;5085631;28;20696;-34
2023/06/07 07:01:45;;;;;;;5.40;3.40;;;;;;;;;;5089433;28;20196;-29
2023/06/07 07:04:12;;;;;;;3.45;3.25;;;;;;;;;;5087796;28;20737;-33
2023/06/07 07:06:41;;;;;;;3.53;3.22;;;;;;;;;;5088443;28;20240;-36
2023/06/07 07:09:09;;;;;;;2.92;2.72;;;;;;;;;;5083179;28;20251;-32
2023/06/07 07:11:36;;;;;;;3.00;2.80;;;;;;;;;;5084049;28;20643;-28
2023/06/07 07:14:03;;;;;;;3.50;3.15;;;;;;;;;;5077356;28;20198;-28
2023/06/07 07:16:31;;;;;;;3.50;3.20;;;;;;;;;;5085197;28;20240;-30
2023/06/07 07:18:58;;;;;;;3.63;3.00;;;;;;;;;;5081809;28;20194;-34
2023/06/07 07:21:28;;;;;;;4.03;2.72;;;;;;;;;;5091711;28;20307;-27
2023/06/07 07:23:56;;;;;;;3.10;2.90;;;;;;;;;;5080795;28;20205;-30
2023/06/07 07:26:23;;;;;;;3.28;2.97;;;;;;;;;;5075888;28;20236;-35
2023/06/07 07:28:52;;;;;;;2.95;2.75;;;;;;;;;;5088703;28;20218;-32
2023/06/07 07:31:20;;;;;;;2.95;2.75;;;;;;;;;;5076128;28;20368;-34
2023/06/07 07:33:48;;;;;;;2.83;2.63;;;;;;;;;;5074109;28;20228;-28
2023/06/07 07:36:17;;;;;;;2.80;2.60;;;;;;;;;;5068135;28;20244;-35
2023/06/07 07:38:45;;;;;;;2.97;2.70;;;;;;;;;;5079871;28;20274;-34
2023/06/07 07:41:14;;;;;;;4.22;2.83;;;;;;;;;;5072775;28;20214;-30
2023/06/07 07:43:41;;;;;;;2.72;2.53;;;;;;;;;;5076963;28;20217;-30
2023/06/07 07:46:08;;;;;;;2.50;2.30;;;;;;;;;;5079021;28;20541;-30
2023/06/07 07:48:36;;;;;;;2.40;2.20;;;;;;;;;;5071536;28;20315;-29
2023/06/07 07:51:03;;;;;;;2.65;2.45;;;;;;;;;;5073263;28;20206;-28
2023/06/07 07:53:31;;;;;;;5.00;2.25;;;;;;;;;;5074994;28;20199;-35
2023/06/07 07:55:58;;;;;;;2.13;2.00;;;;;;;;;;5076701;28;20224;-33
2023/06/07 07:58:27;;;;;;;2.65;2.50;;;;;;;;;;5072321;28;20201;-36
2023/06/07 08:00:54;;;;;;;3.05;2.28;;;;;;;;;;5079489;28;20200;-33
2023/06/07 08:03:21;;;;;;;2.35;2.15;;;;;;;;;;5078896;28;20263;-30
2023/06/07 08:05:48;;;;;;;2.47;2.28;;;;;;;;;;5072838;28;20261;-42
2023/06/07 08:08:17;;;;;;;2.58;2.38;;;;;;;;;;5078660;28;20856;-35
2023/06/07 08:10:44;;;;;;;3.22;2.42;;;;;;;;;;5071891;28;20211;-32
2023/06/07 08:13:11;;;;;;;2.28;2.17;;;;;;;;;;5079031;28;20229;-33
2023/06/07 08:15:40;;;;;;;3.20;2.50;;;;;;;;;;5081453;28;20215;-32
2023/06/07 08:18:07;;;;;;;2.50;2.30;;;;;;;;;;5074687;28;20260;-38
2023/06/07 08:20:35;;;;;;;3.15;2.17;;;;;;;;;;5083552;28;20209;-30
2023/06/07 08:23:02;;;;;;;2.60;2.40;;;;;;;;;;5083284;28;20194;-34
2023/06/07 08:25:29;;;;;;;2.70;2.50;;;;;;;;;;5078476;28;20230;-29
2023/06/07 08:27:56;;;;;;;3.20;2.45;;;;;;;;;;5081610;28;20228;-32
2023/06/07 08:30:23;;;;;;;2.70;2.10;;;;;;;;;;5078186;28;20198;-34
2023/06/07 08:32:52;;;;;;;2.25;2.15;;;;;;;;;;5069780;28;20301;-34
2023/06/07 08:35:19;;;;;;;4.60;2.40;;;;;;;;;;5074895;28;20194;-36
2023/06/07 08:37:46;;;;;;;2.55;2.05;;;;;;;;;;5083665;28;20190;-32
2023/06/07 08:40:14;;;;;;;2.03;1.80;;;;;;;;;;5076202;28;20210;-30
2023/06/07 08:42:41;;;;;;;2.15;1.95;;;;;;;;;;5082931;28;20203;-35
2023/06/07 08:45:08;;;;;;;2.42;2.03;;;;;;;;;;5076375;28;20637;-30
2023/06/07 08:47:37;;;;;;;2.13;2.00;;;;;;;;;;5082309;28;20221;-35
2023/06/07 08:50:06;;;;;;;4.90;2.20;;;;;;;;;;5082046;28;20203;-36
2023/06/07 08:52:33;;;;;;;2.28;2.17;;;;;;;;;;5078709;28;20197;-35
2023/06/07 08:55:01;;;;;;;2.20;2.10;;;;;;;;;;5083628;28;20197;-33
2023/06/07 08:57:32;;;;;;;3.55;2.20;;;;;;;;;;5083956;28;20225;-31
2023/06/07 09:00:03;;;;;;;2.30;2.10;;;;;;;;;;5083121;28;20205;-34
2023/06/07 09:02:30;;;;;;;3.30;2.20;;;;;;;;;;5083688;28;20200;-35
2023/06/07 09:04:57;;;;;;;2.97;2.28;;;;;;;;;;5082865;28;20208;-36
2023/06/07 09:07:25;;;;;;;5.40;2.20;;;;;;;;;;5084979;28;20222;-33
2023/06/07 09:09:53;;;;;;;3.15;1.88;;;;;;;;;;5087209;28;20221;-36
2023/06/07 09:12:20;;;;;;;2.55;2.35;;;;;;;;;;5086771;28;20444;-33
2023/06/07 09:14:47;;;;;;;2.50;2.30;;;;;;;;;;5082874;28;20194;-30
2023/06/07 09:17:15;;;;;;;3.03;2.10;;;;;;;;;;5074629;28;20229;-30
2023/06/07 09:19:43;;;;;;;2.15;2.05;;;;;;;;;;5077720;28;20696;-32
2023/06/07 09:22:12;;;;;;;2.85;2.13;;;;;;;;;;5087665;28;20203;-31
2023/06/07 09:25:05;;;;;;;2.15;1.98;;;;;;;;;;5083819;28;20210;-32
2023/06/07 09:27:33;;;;;;;2.30;2.20;;;;;;;;;;5083222;28;20198;-29
2023/06/07 09:30:05;;;;;;;3.08;2.05;;;;;;;;;;5073834;28;20200;-34
2023/06/07 09:32:38;;;;;;;2.30;2.10;;;;;;;;;;5078052;28;20245;-30
2023/06/07 09:35:14;;;;;;;2.45;2.28;;;;;;;;;;5072152;28;20218;-34
2023/06/07 09:42:56;;;;;;;2.75;1.98;;;;;;;;;;5078591;28;20230;-45
2023/06/07 09:45:24;;;;;;;2.28;2.17;;;;;;;;;;5090113;28;20298;-38
2023/06/07 09:48:01;;;;;;;2.15;2.05;;;;;;;;;;5039151;28;20206;-41
2023/06/07 09:50:28;;;;;;;2.88;1.75;;;;;;;;;;5056962;28;20212;-38
2023/06/07 09:52:56;;;;;;;3.17;1.92;;;;;;;;;;5070108;28;20660;-43
2023/06/07 09:55:28;;;;;;;2.40;2.20;;;;;;;;;;5058511;28;20832;-41
2023/06/07 09:57:56;;;;;;;2.38;2.17;;;;;;;;;;5058122;28;20261;-37
2023/06/07 10:00:24;;;;;;;4.28;2.30;;;;;;;;;;5057709;28;20212;-37
2023/06/07 10:02:51;;;;;;;2.47;2.30;;;;;;;;;;5040843;28;20204;-44
2023/06/07 10:05:21;;;;;;;2.35;2.20;;;;;;;;;;5048437;28;20213;-39
2023/06/07 10:07:48;;;;;;;2.22;1.90;;;;;;;;;;5069570;28;20204;-43
2023/06/07 10:10:17;;;;;;;2.42;2.33;;;;;;;;;;5068544;28;20202;-38
2023/06/07 10:12:45;;;;;;;2.50;2.30;;;;;;;;;;5047517;28;20237;-36
2023/06/07 10:15:15;;;;;;;2.03;1.92;;;;;;;;;;5066371;28;20208;-38
2023/06/07 10:17:49;;;;;;;2.58;2.28;;;;;;;;;;5042769;28;20265;-36
2023/06/07 10:20:18;;;;;;;2.20;2.10;;;;;;;;;;5058285;28;20831;-37
2023/06/07 10:22:50;;;;;;;2.40;2.20;;;;;;;;;;5055073;28;20212;-44
2023/06/07 10:25:20;;;;;;;2.47;2.00;;;;;;;;;;5054848;28;20208;-37
2023/06/07 10:27:53;;;;;;;1.95;1.85;;;;;;;;;;5043878;28;20219;-34
2023/06/07 10:30:23;;;;;;;2.50;2.08;;;;;;;;;;5054760;28;20206;-41
2023/06/07 10:32:53;;;;;;;2.60;2.40;;;;;;;;;;5053698;28;20199;-37
2023/06/07 10:35:20;;;;;;;2.85;2.35;;;;;;;;;;5071890;28;20268;-37
2023/06/07 10:37:53;;;;;;;2.55;2.35;;;;;;;;;;5068975;28;20550;-42
2023/06/07 10:40:20;;;;;;;2.20;2.00;;;;;;;;;;5056934;28;20194;-44
2023/06/07 10:42:48;;;;;;;2.53;2.22;;;;;;;;;;5053303;28;20213;-40
2023/06/07 10:45:18;;;;;;;2.67;2.13;;;;;;;;;;5059027;28;20212;-44
2023/06/07 10:47:47;;;;;;;3.83;2.20;;;;;;;;;;5044336;28;20204;-38
2023/06/07 10:50:34;;;;;;;2.55;2.35;;;;;;;;;;5055717;28;20249;-33
2023/06/07 10:53:02;;;;;;;4.00;2.28;;;;;;;;;;5054371;28;20672;-41
2023/06/07 10:55:31;;;;;;;2.35;2.08;;;;;;;;;;5054154;28;20243;-38
2023/06/07 10:57:58;;;;;;;5.13;2.25;;;;;;;;;;5068824;28;20271;-37
2023/06/07 11:00:33;;;;;;;2.70;2.50;;;;;;;;;;5048671;28;20199;-40
2023/06/07 11:03:19;;;;;;;2.22;2.13;;;;;;;;;;5042548;28;20209;-36
2023/06/07 11:06:02;;;;;;;6.95;2.70;;;;;;;;;;5057612;28;20232;-43
2023/06/07 11:08:31;;;;;;;2.70;2.15;;;;;;;;;;5038635;28;20697;-39
2023/06/07 11:11:00;;;;;;;8.55;2.25;;;;;;;;;;5043813;28;20203;-35
2023/06/07 11:13:28;;;;;;;2.83;2.20;;;;;;;;;;5058113;28;20223;-36
2023/06/07 11:16:15;;;;;;;3.08;2.78;;;;;;;;;;5060503;28;20246;-36
2023/06/07 11:18:55;;;;;;;8.02;2.33;;;;;;;;;;5053273;28;20206;-39
2023/06/07 11:21:22;;;;;;;2.13;1.92;;;;;;;;;;5061057;28;20206;-39
2023/06/07 11:24:10;;;;;;;2.25;2.10;;;;;;;;;;5042661;28;20207;-41
2023/06/07 11:26:37;;;;;;;2.42;2.30;;;;;;;;;;5044568;28;20267;-32
2023/06/07 11:29:04;;;;;;;2.53;2.28;;;;;;;;;;5053630;28;20224;-35
2023/06/07 11:31:32;;;;;;;3.20;2.42;;;;;;;;;;5051750;28;20645;-37
2023/06/07 11:34:00;;;;;;;2.72;2.40;;;;;;;;;;5056126;28;20207;-37
2023/06/07 11:36:43;;;;;;;3.03;2.60;;;;;;;;;;5045585;28;20234;-38
2023/06/07 11:39:16;;;;;;;2.60;2.38;;;;;;;;;;5034774;28;20286;-36
2023/06/07 11:41:43;;;;;;;2.40;2.20;;;;;;;;;;5044423;28;20219;-38
2023/06/07 11:44:11;;;;;;;5.18;2.72;;;;;;;;;;5065748;28;20248;-38
2023/06/07 11:46:38;;;;;;;4.50;2.42;;;;;;;;;;5068155;28;20227;-36
2023/06/07 11:49:06;;;;;;;2.25;2.05;;;;;;;;;;5054325;28;20233;-36
2023/06/07 11:51:34;;;;;;;3.53;2.67;;;;;;;;;;5057783;28;20219;-39
2023/06/07 11:54:01;;;;;;;2.30;2.10;;;;;;;;;;5052599;28;20279;-38
2023/06/07 11:56:32;;;;;;;7.43;2.15;;;;;;;;;;5050777;28;20232;-39
2023/06/07 11:59:00;;;;;;;2.33;2.10;;;;;;;;;;5056126;28;20281;-39
2023/06/07 12:01:28;;;;;;;2.25;2.05;;;;;;;;;;5057748;28;20213;-38
2023/06/07 12:03:56;;;;;;;2.30;2.10;;;;;;;;;;5056756;28;20207;-42
2023/06/07 12:06:26;;;;;;;2.45;2.20;;;;;;;;;;5073641;28;20310;-35
2023/06/07 12:08:54;;;;;;;2.28;2.00;;;;;;;;;;5073838;28;20241;-40
2023/06/07 12:11:22;;;;;;;3.38;2.30;;;;;;;;;;5060226;28;20294;-37
2023/06/07 12:13:54;;;;;;;2.97;2.58;;;;;;;;;;5052125;28;20229;-40
2023/06/07 12:16:22;;;;;;;2.60;2.40;;;;;;;;;;5060343;28;20219;-36
2023/06/07 12:18:49;;;;;;;3.03;2.30;;;;;;;;;;5046652;28;20215;-42
2023/06/07 12:21:17;;;;;;;8.07;2.60;;;;;;;;;;5060633;28;20203;-40
2023/06/07 12:23:47;;;;;;;3.35;2.53;;;;;;;;;;5053130;28;20207;-43
2023/06/07 12:26:21;;;;;;;2.63;2.22;;;;;;;;;;5048820;28;20231;-38
2023/06/07 12:28:49;;;;;;;2.83;2.22;;;;;;;;;;5052110;28;20212;-39
2023/06/07 12:31:21;;;;;;;2.05;1.95;;;;;;;;;;5047085;28;20193;-36
2023/06/07 12:33:54;;;;;;;2.33;2.13;;;;;;;;;;5046980;28;20196;-34
2023/06/07 12:36:22;;;;;;;2.30;2.10;;;;;;;;;;5046481;28;20275;-41
2023/06/07 12:38:49;;;;;;;7.38;2.25;;;;;;;;;;5043827;28;20203;-39
2023/06/07 12:41:16;;;;;;;1.90;1.80;;;;;;;;;;5041119;28;20674;-38
2023/06/07 12:43:46;;;;;;;1.90;1.80;;;;;;;;;;5047570;28;20207;-40
2023/06/07 12:46:14;;;;;;;5.35;2.25;;;;;;;;;;5040067;28;20220;-38
2023/06/07 12:48:42;;;;;;;2.40;2.20;;;;;;;;;;5046390;28;20213;-40
2023/06/07 12:51:11;;;;;;;5.30;2.00;;;;;;;;;;5047667;28;20215;-38
2023/06/07 12:53:46;;;;;;;3.47;2.08;;;;;;;;;;5049456;28;20284;-41
2023/06/07 12:56:13;;;;;;;2.65;2.22;;;;;;;;;;5041623;28;20223;-38
2023/06/07 12:58:40;;;;;;;3.92;2.22;;;;;;;;;;5067716;28;20204;-34
2023/06/07 13:01:07;;;;;;;2.20;2.00;;;;;;;;;;5045934;28;20217;-37
2023/06/07 13:03:34;;;;;;;2.08;1.98;;;;;;;;;;5036264;28;20585;-43
2023/06/07 13:06:04;;;;;;;4.03;2.13;;;;;;;;;;5049201;28;20223;-42
2023/06/07 13:08:31;;;;;;;2.85;2.42;;;;;;;;;;5048101;28;20205;-43
2023/06/07 13:10:58;;;;;;;1.88;1.77;;;;;;;;;;5046005;28;20753;-39
2023/06/07 13:13:25;;;;;;;3.17;2.25;;;;;;;;;;5046316;28;20215;-35
2023/06/07 13:15:54;;;;;;;2.92;2.50;;;;;;;;;;5049935;28;20220;-39
2023/06/07 13:18:21;;;;;;;2.58;1.90;;;;;;;;;;5037831;28;20216;-37
2023/06/07 13:20:49;;;;;;;2.05;1.95;;;;;;;;;;5054452;28;20196;-36
2023/06/07 13:23:29;;;;;;;1.98;1.80;;;;;;;;;;5041163;28;20209;-41
2023/06/07 13:25:56;;;;;;;3.67;2.20;;;;;;;;;;5037353;28;20223;-41
2023/06/07 13:28:23;;;;;;;2.25;1.70;;;;;;;;;;5047210;28;20209;-34
2023/06/07 13:30:51;;;;;;;3.78;1.80;;;;;;;;;;5052293;28;20224;-38
2023/06/07 13:33:18;;;;;;;2.10;1.90;;;;;;;;;;5037872;28;20655;-36
2023/06/07 13:35:46;;;;;;;1.70;1.60;;;;;;;;;;5044383;28;20227;-36
2023/06/07 13:38:13;;;;;;;3.88;1.70;;;;;;;;;;5045704;28;20209;-40
2023/06/07 13:40:41;;;;;;;2.95;1.77;;;;;;;;;;5042812;28;20205;-35
2023/06/07 13:43:08;;;;;;;1.80;1.70;;;;;;;;;;5048717;28;20210;-41
2023/06/07 13:45:36;;;;;;;1.90;1.80;;;;;;;;;;5056670;28;20218;-41
2023/06/07 13:48:04;;;;;;;3.03;1.80;;;;;;;;;;5050086;28;20200;-40
2023/06/07 13:50:31;;;;;;;1.90;1.77;;;;;;;;;;5043246;28;20695;-39
2023/06/07 13:52:58;;;;;;;2.40;1.83;;;;;;;;;;5044647;28;20201;-45
2023/06/07 13:55:25;;;;;;;1.48;1.38;;;;;;;;;;5041336;28;20222;-42
2023/06/07 13:57:54;;;;;;;1.35;1.27;;;;;;;;;;5048566;28;20337;-42
2023/06/07 14:00:22;;;;;;;1.77;1.55;;;;;;;;;;5041032;28;20205;-43
2023/06/07 14:02:49;;;;;;;3.08;1.55;;;;;;;;;;5047918;28;20221;-37
2023/06/07 14:05:16;;;;;;;2.45;1.48;;;;;;;;;;5059584;28;20225;-37
2023/06/07 14:07:43;;;;;;;1.35;1.25;;;;;;;;;;5057920;28;20207;-38
2023/06/07 14:10:11;;;;;;;1.92;1.70;;;;;;;;;;5049954;28;20244;-43
2023/06/07 14:12:40;;;;;;;1.45;1.35;;;;;;;;;;5045796;28;20206;-41
2023/06/07 14:15:12;;;;;;;1.25;1.20;;;;;;;;;;5053235;28;20201;-37
2023/06/07 14:17:39;;;;;;;1.55;1.45;;;;;;;;;;5047130;28;20198;-42
2023/06/07 14:20:08;;;;;;;1.98;1.05;;;;;;;;;;5054842;28;20216;-39
2023/06/07 14:22:35;;;;;;;1.27;1.17;;;;;;;;;;5043147;28;20318;-41
2023/06/07 14:25:02;;;;;;;1.48;1.38;;;;;;;;;;5052375;28;20205;-38
2023/06/07 14:27:29;;;;;;;1.70;1.10;;;;;;;;;;5046470;28;20227;-39
2023/06/07 14:29:56;;;;;;;1.60;1.50;;;;;;;;;;5054832;28;20225;-38
2023/06/07 14:32:25;;;;;;;1.38;1.25;;;;;;;;;;5056454;28;20212;-36
2023/06/07 14:34:52;;;;;;;1.48;1.20;;;;;;;;;;5062051;28;20215;-38
2023/06/07 14:37:20;;;;;;;1.50;1.40;;;;;;;;;;5051005;28;20248;-41
2023/06/07 14:39:47;;;;;;;1.50;1.30;;;;;;;;;;5045931;28;20195;-37
2023/06/07 14:42:14;;;;;;;1.40;1.30;;;;;;;;;;5043607;28;20222;-43
2023/06/07 14:44:41;;;;;;;1.30;1.20;;;;;;;;;;5060019;28;20211;-42
2023/06/07 14:47:08;;;;;;;2.20;1.20;;;;;;;;;;5044624;28;20223;-38
2023/06/07 14:49:37;;;;;;;1.45;1.35;;;;;;;;;;5047064;28;20235;-42
2023/06/07 14:52:04;;;;;;;2.92;1.33;;;;;;;;;;5051527;28;20208;-37
2023/06/07 14:54:32;;;;;;;1.10;1.10;;;;;;;;;;5044755;28;20209;-35
2023/06/07 14:57:07;;;;;;;1.08;1.08;;;;;;;;;;5048691;28;20222;-39
2023/06/07 14:59:39;;;;;;;2.88;1.30;;;;;;;;;;5052043;28;20193;-34